Gil Vicente — CSKG — position and weather

sailwx.info

Track history (hours):
 
Tides and Currents Weather Stations Pressure Air Temp Water Temp Dewpoint Dewpoint Depression Visibility Wind Speed Wind Dir Waves Ship Positions

Gil Vicente

Last reported at 2017-Jun-23 19:53 UTC. Time now 2017-Jun-25 03:44 UTC.
Position N 38°39' W 009°05'.

Length 49 m.

Type: Passenger vessel. MMSI: 263701390.

Date/timePositionNaut miles runAvg speedWind from/ knotsBaromVisibWave heightAir tempDewpointWater temp
2017-Jun-23 19:53N 38°39' W 009°05'411.1
2017-Jun-23 19:30N 38°42' W 009°08'4 8.3
2017-Jun-23 19:00N 38°39' W 009°05'4 8.3
2017-Jun-23 18:30N 38°42' W 009°08'4 8.3
2017-Jun-23 18:00N 38°39' W 009°05'2 4.9
2017-Jun-23 17:30N 38°40' W 009°07'0 0.1
2017-Jun-23 17:00N 38°40' W 009°07'2 3.5
2017-Jun-23 16:30N 38°39' W 009°06'4 7.3
2017-Jun-23 16:00N 38°42' W 009°08'4 8.3
2017-Jun-23 15:30N 38°39' W 009°05'4 7.2
2017-Jun-23 15:00N 38°42' W 009°08'4 3.6
2017-Jun-23 14:00N 38°39' W 009°05'0 0.0
2017-Jun-23 13:30N 38°39' W 009°05'0 0.0
2017-Jun-23 13:00N 38°39' W 009°05'0 0.0
2017-Jun-23 12:30N 38°39' W 009°05'0 0.0
2017-Jun-23 12:00N 38°39' W 009°05'0 0.0
2017-Jun-23 11:30N 38°39' W 009°05'0 0.0
2017-Jun-23 11:00N 38°39' W 009°05'0 0.0
2017-Jun-23 10:30N 38°39' W 009°05'3 6.9
2017-Jun-23 10:00N 38°42' W 009°08'3 5.8
2017-Jun-23 09:30N 38°39' W 009°06'1 1.3
2017-Jun-23 09:00N 38°39' W 009°05'3 7.0
2017-Jun-23 08:30N 38°42' W 009°08'1 2.4
2017-Jun-23 08:00N 38°40' W 009°08'2 4.1
2017-Jun-23 07:30N 38°39' W 009°06'4 7.3
2017-Jun-23 07:00N 38°42' W 009°08'4 8.3
2017-Jun-23 06:30N 38°39' W 009°05'4 8.3
2017-Jun-23 06:00N 38°42' W 009°08'4 8.3
2017-Jun-23 05:30N 38°39' W 009°05'4 7.7
2017-Jun-23 05:00N 38°42' W 009°08'4 7.7
2017-Jun-23 04:30N 38°39' W 009°05'0 0.0
2017-Jun-22 22:56N 38°39' W 009°05'4 9.7
2017-Jun-22 22:30N 38°42' W 009°08'4 8.3
2017-Jun-22 22:00N 38°39' W 009°05'4 7.2
2017-Jun-22 21:30N 38°42' W 009°08'4 7.1
2017-Jun-22 21:00N 38°39' W 009°05'4 7.1
2017-Jun-22 20:30N 38°42' W 009°08'3 7.0
2017-Jun-22 20:00N 38°39' W 009°05'0 0.0
2017-Jun-22 19:30N 38°39' W 009°05'4 8.2
2017-Jun-22 19:00N 38°42' W 009°08'4 8.3
2017-Jun-22 18:30N 38°39' W 009°05'4 8.3
2017-Jun-22 18:00N 38°42' W 009°08'4 8.4
2017-Jun-22 17:30N 38°39' W 009°05'4 8.0
2017-Jun-22 17:00N 38°42' W 009°08'2 4.3
2017-Jun-22 16:30N 38°40' W 009°07'1 1.2
2017-Jun-22 16:00N 38°41' W 009°08'3 4.8
2017-Jun-22 15:28N 38°39' W 009°05'0 0.0
2017-Jun-22 09:29N 38°39' W 009°05'3 7.1
2017-Jun-22 09:00N 38°42' W 009°08'3 5.9
2017-Jun-22 08:30N 38°39' W 009°06'3 6.4
2017-Jun-22 08:00N 38°42' W 009°08'4 7.5
2017-Jun-22 07:30N 38°39' W 009°05'4 8.4
2017-Jun-22 07:00N 38°42' W 009°08'4 8.3
2017-Jun-22 06:30N 38°39' W 009°05'3 7.0
2017-Jun-22 06:00N 38°42' W 009°08'4 7.0
2017-Jun-22 05:30N 38°39' W 009°05'0 0.0
2017-Jun-21 19:46N 38°39' W 009°05'415.7
2017-Jun-21 19:31N 38°42' W 009°08'4 8.1
2017-Jun-21 19:00N 38°39' W 009°05'4 8.7
2017-Jun-21 18:31N 38°42' W 009°08'4 8.3
2017-Jun-21 18:01N 38°39' W 009°05'4 7.7
2017-Jun-21 17:31N 38°42' W 009°08'2 3.1
2017-Jun-21 17:00N 38°40' W 009°08'2 4.0
2017-Jun-21 16:29N 38°39' W 009°05'4 7.8
2017-Jun-21 16:01N 38°42' W 009°08'4 8.3
2017-Jun-21 15:31N 38°39' W 009°05'4 7.0
2017-Jun-21 15:01N 38°42' W 009°08'3 6.5
2017-Jun-21 14:29N 38°39' W 009°05'0 0.0
2017-Jun-21 10:21N 38°39' W 009°05'3 9.9
2017-Jun-21 10:00N 38°42' W 009°08'3 6.5
2017-Jun-21 09:30N 38°39' W 009°05'0 0.4
2017-Jun-21 09:01N 38°39' W 009°05'4 8.3
2017-Jun-21 08:30N 38°42' W 009°08'3 5.0
2017-Jun-21 08:00N 38°40' W 009°07'0 0.7
2017-Jun-21 07:30N 38°40' W 009°07'3 5.5
2017-Jun-21 07:00N 38°42' W 009°08'4 8.3
2017-Jun-21 06:31N 38°39' W 009°05'4 8.3
2017-Jun-21 06:01N 38°42' W 009°08'4 8.3
2017-Jun-21 05:30N 38°39' W 009°05'3 7.0
2017-Jun-21 05:00N 38°42' W 009°08'4 6.9
2017-Jun-21 04:29N 38°39' W 009°05'0 0.0
2017-Jun-20 22:49N 38°39' W 009°05'413.3
2017-Jun-20 22:31N 38°42' W 009°08'4 8.3
2017-Jun-20 22:01N 38°39' W 009°05'3 6.8
2017-Jun-20 21:31N 38°42' W 009°08'3 6.6
2017-Jun-20 20:59N 38°39' W 009°05'3 7.0
2017-Jun-20 20:31N 38°41' W 009°08'3 6.7
2017-Jun-20 20:01N 38°39' W 009°05'0 0.0
2017-Jun-20 19:31N 38°39' W 009°05'4 8.3
2017-Jun-20 19:01N 38°42' W 009°08'4 8.4
2017-Jun-20 18:30N 38°39' W 009°05'4 8.4
2017-Jun-20 18:01N 38°42' W 009°08'4 8.2
2017-Jun-20 17:30N 38°39' W 009°05'4 7.5
2017-Jun-20 17:01N 38°42' W 009°08'2 3.5
2017-Jun-20 16:30N 38°40' W 009°07'1 1.3
2017-Jun-20 16:00N 38°41' W 009°08'3 5.1
2017-Jun-20 15:29N 38°39' W 009°05'0 0.0
2017-Jun-20 12:26N 38°39' W 009°05'3 8.0
2017-Jun-20 12:00N 38°42' W 009°08'3 5.4
2017-Jun-20 11:30N 38°39' W 009°06'3 5.7
2017-Jun-20 11:00N 38°42' W 009°08'3 5.7
2017-Jun-20 10:30N 38°39' W 009°06'1 1.6
2017-Jun-20 10:00N 38°39' W 009°05'0 0.0
2017-Jun-20 09:30N 38°39' W 009°05'4 8.0
2017-Jun-20 09:00N 38°42' W 009°08'4 7.9
2017-Jun-20 08:30N 38°39' W 009°05'4 8.3
2017-Jun-20 08:00N 38°42' W 009°08'4 7.9
2017-Jun-20 07:30N 38°39' W 009°05'2 4.0
2017-Jun-20 07:00N 38°40' W 009°07'0 0.5
2017-Jun-20 06:30N 38°40' W 009°07'1 1.8
2017-Jun-20 06:00N 38°40' W 009°06'1 2.1
2017-Jun-20 05:30N 38°39' W 009°05'0 0.0
2017-Jun-19 20:21N 38°39' W 009°05'2 7.2
2017-Jun-19 20:00N 38°40' W 009°07'1 1.5
2017-Jun-19 19:30N 38°40' W 009°07'2 3.7
2017-Jun-19 19:00N 38°39' W 009°05'2 4.4
2017-Jun-19 18:30N 38°40' W 009°07'1 2.5
2017-Jun-19 18:00N 38°39' W 009°06'3 6.7
2017-Jun-19 17:30N 38°42' W 009°08'4 8.4
2017-Jun-19 17:00N 38°39' W 009°05'4 7.7
2017-Jun-19 16:31N 38°42' W 009°08'2 3.7
2017-Jun-19 16:01N 38°40' W 009°07'0 0.8
2017-Jun-19 15:31N 38°40' W 009°07'2 4.0
2017-Jun-19 15:00N 38°39' W 009°05'4 3.6
2017-Jun-19 14:00N 38°42' W 009°08'3 6.4
2017-Jun-19 13:29N 38°39' W 009°05'3 6.8
2017-Jun-19 13:01N 38°42' W 009°08'4 5.9
2017-Jun-19 12:25N 38°39' W 009°05'0 0.2
2017-Jun-19 12:01N 38°39' W 009°05'0 0.0
2017-Jun-19 11:30N 38°39' W 009°05'0 0.0
2017-Jun-19 11:01N 38°39' W 009°05'0 0.0
2017-Jun-19 10:30N 38°39' W 009°05'0 0.1
2017-Jun-19 10:00N 38°39' W 009°05'3 7.0
2017-Jun-19 09:31N 38°42' W 009°08'3 6.9
2017-Jun-19 09:01N 38°39' W 009°05'3 6.6
2017-Jun-19 08:31N 38°41' W 009°08'3 6.7
2017-Jun-19 08:01N 38°39' W 009°05'4 8.3
2017-Jun-19 07:30N 38°42' W 009°08'3 5.4
2017-Jun-19 07:00N 38°40' W 009°07'1 1.7
2017-Jun-19 06:30N 38°39' W 009°06'1 1.4
2017-Jun-19 06:01N 38°39' W 009°05'0 0.0
2017-Jun-19 05:31N 38°39' W 009°05'0 0.0
2017-Jun-18 10:24N 38°39' W 009°05'3 8.3
2017-Jun-18 10:00N 38°41' W 009°08'3 5.2
2017-Jun-18 09:30N 38°39' W 009°06'3 5.5
2017-Jun-18 09:00N 38°42' W 009°08'3 6.6
2017-Jun-18 08:30N 38°39' W 009°05'3 6.1
2017-Jun-18 08:00N 38°41' W 009°08'3 5.1
2017-Jun-18 07:30N 38°39' W 009°06'3 5.5
2017-Jun-18 07:00N 38°42' W 009°08'3 5.5
2017-Jun-18 06:30N 38°39' W 009°06'0 0.1
2017-Jun-18 06:00N 38°39' W 009°06'1 1.9
2017-Jun-18 05:30N 38°40' W 009°07'1 1.3
2017-Jun-18 05:00N 38°40' W 009°06'2 4.1
2017-Jun-18 04:30N 38°41' W 009°08'3 6.0
2017-Jun-18 04:00N 38°39' W 009°05'0 0.0
2017-Jun-18 01:24N 38°39' W 009°05'410.5
2017-Jun-18 01:00N 38°42' W 009°08'4 8.3
2017-Jun-18 00:30N 38°39' W 009°05'4 8.3
2017-Jun-18 00:00N 38°42' W 009°08'4 8.3
2017-Jun-17 23:30N 38°39' W 009°05'4 8.3
2017-Jun-17 23:00N 38°42' W 009°08'4 8.4
2017-Jun-17 22:30N 38°39' W 009°05'3 6.7
2017-Jun-17 22:00N 38°41' W 009°08'3 5.7
2017-Jun-17 21:30N 38°39' W 009°06'3 6.0
2017-Jun-17 21:00N 38°42' W 009°08'3 5.7
2017-Jun-17 20:30N 38°39' W 009°06'3 5.3
2017-Jun-17 20:00N 38°41' W 009°08'3 5.6
2017-Jun-17 19:30N 38°39' W 009°06'1 1.3
2017-Jun-17 19:00N 38°39' W 009°05'3 6.8
2017-Jun-17 18:30N 38°42' W 009°08'3 5.2
2017-Jun-17 18:00N 38°39' W 009°06'3 5.3
2017-Jun-17 17:30N 38°42' W 009°08'3 5.4
2017-Jun-17 17:00N 38°39' W 009°06'3 5.3
2017-Jun-17 16:30N 38°42' W 009°08'3 5.5
2017-Jun-17 16:00N 38°39' W 009°06'3 5.9
2017-Jun-17 15:30N 38°42' W 009°08'3 5.5
2017-Jun-17 15:00N 38°39' W 009°06'0 0.1
2017-Jun-17 14:00N 38°39' W 009°06'1 1.6
2017-Jun-17 13:30N 38°39' W 009°05'0 0.0
2017-Jun-17 13:00N 38°39' W 009°05'0 0.0
2017-Jun-17 12:30N 38°39' W 009°05'4 8.3
2017-Jun-17 12:00N 38°42' W 009°08'3 7.0
2017-Jun-17 11:30N 38°39' W 009°06'3 5.4
2017-Jun-17 11:00N 38°42' W 009°08'3 5.5
2017-Jun-17 10:30N 38°39' W 009°06'3 5.6
2017-Jun-17 10:00N 38°42' W 009°08'3 6.2
2017-Jun-17 09:30N 38°39' W 009°05'4 7.8
2017-Jun-17 09:00N 38°42' W 009°08'4 7.1
2017-Jun-17 08:30N 38°39' W 009°06'3 5.6
2017-Jun-17 08:00N 38°42' W 009°08'3 5.3
2017-Jun-17 07:30N 38°39' W 009°06'3 5.3
2017-Jun-17 07:00N 38°41' W 009°08'3 5.6
2017-Jun-17 06:30N 38°39' W 009°06'0 0.6
2017-Jun-17 06:00N 38°39' W 009°06'1 1.2
2017-Jun-17 05:30N 38°40' W 009°07'0 0.1
2017-Jun-17 05:00N 38°40' W 009°06'2 3.0
2017-Jun-17 04:30N 38°41' W 009°08'3 5.9
2017-Jun-17 04:00N 38°39' W 009°05'0 0.0
2017-Jun-16 10:21N 38°39' W 009°05'3 9.9
2017-Jun-16 10:01N 38°42' W 009°08'3 5.8
2017-Jun-16 09:30N 38°39' W 009°06'1 1.4
2017-Jun-16 09:00N 38°39' W 009°05'4 8.3
2017-Jun-16 08:30N 38°42' W 009°08'3 5.2
2017-Jun-16 08:00N 38°40' W 009°07'1 1.8
2017-Jun-16 07:30N 38°39' W 009°06'3 6.8
2017-Jun-16 07:00N 38°42' W 009°08'4 8.3
2017-Jun-16 06:30N 38°39' W 009°05'4 8.3
2017-Jun-16 06:01N 38°42' W 009°08'4 8.3
2017-Jun-16 05:31N 38°39' W 009°05'4 7.5
2017-Jun-16 05:01N 38°42' W 009°08'4 7.5
2017-Jun-16 04:30N 38°39' W 009°05'0 0.0
2017-Jun-15 20:50N 38°39' W 009°05'310.3
2017-Jun-15 20:30N 38°41' W 009°08'3 5.4
2017-Jun-15 20:00N 38°39' W 009°06'1 1.6
2017-Jun-15 19:30N 38°39' W 009°05'3 6.8
2017-Jun-15 19:00N 38°41' W 009°08'2 4.6
2017-Jun-15 18:30N 38°40' W 009°06'3 5.4
2017-Jun-15 18:00N 38°42' W 009°08'3 6.1
2017-Jun-15 17:30N 38°39' W 009°06'3 5.7
2017-Jun-15 17:00N 38°42' W 009°08'3 6.0
2017-Jun-15 16:30N 38°39' W 009°05'3 6.0
2017-Jun-15 16:00N 38°42' W 009°08'3 5.8
2017-Jun-15 15:30N 38°39' W 009°06'3 5.7
2017-Jun-15 15:00N 38°41' W 009°08'0 0.0
2017-Jun-15 14:00N 38°41' W 009°08'3 5.5
2017-Jun-15 13:30N 38°39' W 009°06'3 5.5
2017-Jun-15 13:00N 38°41' W 009°08'3 5.7
2017-Jun-15 12:30N 38°39' W 009°06'1 1.4
2017-Jun-15 12:00N 38°39' W 009°05'0 0.0
2017-Jun-15 11:30N 38°39' W 009°05'0 0.0
2017-Jun-15 11:00N 38°39' W 009°05'0 0.0
2017-Jun-15 10:30N 38°39' W 009°05'0 0.0
2017-Jun-15 10:00N 38°39' W 009°05'0 0.0
2017-Jun-15 09:30N 38°39' W 009°05'0 0.0
2017-Jun-15 08:59N 38°39' W 009°05'0 0.0
2017-Jun-15 06:39N 38°39' W 009°05'0 3.3
2017-Jun-15 06:30N 38°39' W 009°05'1 2.8
2017-Jun-15 06:00N 38°40' W 009°07'1 1.8
2017-Jun-15 05:30N 38°39' W 009°06'2 3.8
2017-Jun-15 05:00N 38°41' W 009°07'3 5.5
2017-Jun-15 04:30N 38°39' W 009°05'0 0.0
2017-Jun-14 22:57N 38°39' W 009°05'4 9.4
2017-Jun-14 22:30N 38°42' W 009°08'4 8.4
2017-Jun-14 22:00N 38°39' W 009°05'3 6.8
2017-Jun-14 21:30N 38°41' W 009°08'3 6.7
2017-Jun-14 21:00N 38°39' W 009°05'4 7.1
2017-Jun-14 20:30N 38°42' W 009°08'4 7.2
2017-Jun-14 20:00N 38°39' W 009°05'0 0.0
2017-Jun-14 19:30N 38°39' W 009°05'4 8.3
2017-Jun-14 19:00N 38°42' W 009°08'4 8.3
2017-Jun-14 18:30N 38°39' W 009°05'4 8.4
2017-Jun-14 18:00N 38°42' W 009°08'4 8.3
2017-Jun-14 17:30N 38°39' W 009°05'3 6.1
2017-Jun-14 17:00N 38°41' W 009°07'1 2.3
2017-Jun-14 16:30N 38°40' W 009°07'0 0.3
2017-Jun-14 16:00N 38°40' W 009°07'2 0.3
2017-Jun-14 09:22N 38°39' W 009°05'3 9.4
2017-Jun-14 09:00N 38°41' W 009°08'3 6.0
2017-Jun-14 08:30N 38°39' W 009°05'3 5.6
2017-Jun-14 08:00N 38°41' W 009°08'3 6.5
2017-Jun-14 07:30N 38°39' W 009°05'4 8.3
2017-Jun-14 07:00N 38°42' W 009°08'4 8.3
2017-Jun-14 06:30N 38°39' W 009°05'3 6.5
2017-Jun-14 06:00N 38°41' W 009°08'3 6.6
2017-Jun-14 05:30N 38°39' W 009°05'  
Track history (hours):
 
Tides and Currents Weather Stations Pressure Air Temp Water Temp Dewpoint Dewpoint Depression Visibility Wind Speed Wind Dir Waves Ship Positions

Gil Vicente

Last reported at 2017-Jun-23 19:53 UTC. Time now 2017-Jun-25 03:44 UTC.
Position N 38°39' W 009°05'.

Length 49 m.

Type: Passenger vessel. MMSI: 263701390.

Date/timePositionNaut miles runAvg speedWind from/ knotsBaromVisibWave heightAir tempDewpointWater temp
2017-Jun-23 19:53N 38°39' W 009°05'411.1
2017-Jun-23 19:30N 38°42' W 009°08'4 8.3
2017-Jun-23 19:00N 38°39' W 009°05'4 8.3
2017-Jun-23 18:30N 38°42' W 009°08'4 8.3
2017-Jun-23 18:00N 38°39' W 009°05'2 4.9
2017-Jun-23 17:30N 38°40' W 009°07'0 0.1
2017-Jun-23 17:00N 38°40' W 009°07'2 3.5
2017-Jun-23 16:30N 38°39' W 009°06'4 7.3
2017-Jun-23 16:00N 38°42' W 009°08'4 8.3
2017-Jun-23 15:30N 38°39' W 009°05'4 7.2
2017-Jun-23 15:00N 38°42' W 009°08'4 3.6
2017-Jun-23 14:00N 38°39' W 009°05'0 0.0
2017-Jun-23 13:30N 38°39' W 009°05'0 0.0
2017-Jun-23 13:00N 38°39' W 009°05'0 0.0
2017-Jun-23 12:30N 38°39' W 009°05'0 0.0
2017-Jun-23 12:00N 38°39' W 009°05'0 0.0
2017-Jun-23 11:30N 38°39' W 009°05'0 0.0
2017-Jun-23 11:00N 38°39' W 009°05'0 0.0
2017-Jun-23 10:30N 38°39' W 009°05'3 6.9
2017-Jun-23 10:00N 38°42' W 009°08'3 5.8
2017-Jun-23 09:30N 38°39' W 009°06'1 1.3
2017-Jun-23 09:00N 38°39' W 009°05'3 7.0
2017-Jun-23 08:30N 38°42' W 009°08'1 2.4
2017-Jun-23 08:00N 38°40' W 009°08'2 4.1
2017-Jun-23 07:30N 38°39' W 009°06'4 7.3
2017-Jun-23 07:00N 38°42' W 009°08'4 8.3
2017-Jun-23 06:30N 38°39' W 009°05'4 8.3
2017-Jun-23 06:00N 38°42' W 009°08'4 8.3
2017-Jun-23 05:30N 38°39' W 009°05'4 7.7
2017-Jun-23 05:00N 38°42' W 009°08'4 7.7
2017-Jun-23 04:30N 38°39' W 009°05'0 0.0
2017-Jun-22 22:56N 38°39' W 009°05'4 9.7
2017-Jun-22 22:30N 38°42' W 009°08'4 8.3
2017-Jun-22 22:00N 38°39' W 009°05'4 7.2
2017-Jun-22 21:30N 38°42' W 009°08'4 7.1
2017-Jun-22 21:00N 38°39' W 009°05'4 7.1
2017-Jun-22 20:30N 38°42' W 009°08'3 7.0
2017-Jun-22 20:00N 38°39' W 009°05'0 0.0
2017-Jun-22 19:30N 38°39' W 009°05'4 8.2
2017-Jun-22 19:00N 38°42' W 009°08'4 8.3
2017-Jun-22 18:30N 38°39' W 009°05'4 8.3
2017-Jun-22 18:00N 38°42' W 009°08'4 8.4
2017-Jun-22 17:30N 38°39' W 009°05'4 8.0
2017-Jun-22 17:00N 38°42' W 009°08'2 4.3
2017-Jun-22 16:30N 38°40' W 009°07'1 1.2
2017-Jun-22 16:00N 38°41' W 009°08'3 4.8
2017-Jun-22 15:28N 38°39' W 009°05'0 0.0
2017-Jun-22 09:29N 38°39' W 009°05'3 7.1
2017-Jun-22 09:00N 38°42' W 009°08'3 5.9
2017-Jun-22 08:30N 38°39' W 009°06'3 6.4
2017-Jun-22 08:00N 38°42' W 009°08'4 7.5
2017-Jun-22 07:30N 38°39' W 009°05'4 8.4
2017-Jun-22 07:00N 38°42' W 009°08'4 8.3
2017-Jun-22 06:30N 38°39' W 009°05'3 7.0
2017-Jun-22 06:00N 38°42' W 009°08'4 7.0
2017-Jun-22 05:30N 38°39' W 009°05'0 0.0
2017-Jun-21 19:46N 38°39' W 009°05'415.7
2017-Jun-21 19:31N 38°42' W 009°08'4 8.1
2017-Jun-21 19:00N 38°39' W 009°05'4 8.7
2017-Jun-21 18:31N 38°42' W 009°08'4 8.3
2017-Jun-21 18:01N 38°39' W 009°05'4 7.7
2017-Jun-21 17:31N 38°42' W 009°08'2 3.1
2017-Jun-21 17:00N 38°40' W 009°08'2 4.0
2017-Jun-21 16:29N 38°39' W 009°05'4 7.8
2017-Jun-21 16:01N 38°42' W 009°08'4 8.3
2017-Jun-21 15:31N 38°39' W 009°05'4 7.0
2017-Jun-21 15:01N 38°42' W 009°08'3 6.5
2017-Jun-21 14:29N 38°39' W 009°05'0 0.0
2017-Jun-21 10:21N 38°39' W 009°05'3 9.9
2017-Jun-21 10:00N 38°42' W 009°08'3 6.5
2017-Jun-21 09:30N 38°39' W 009°05'0 0.4
2017-Jun-21 09:01N 38°39' W 009°05'4 8.3
2017-Jun-21 08:30N 38°42' W 009°08'3 5.0
2017-Jun-21 08:00N 38°40' W 009°07'0 0.7
2017-Jun-21 07:30N 38°40' W 009°07'3 5.5
2017-Jun-21 07:00N 38°42' W 009°08'4 8.3
2017-Jun-21 06:31N 38°39' W 009°05'4 8.3
2017-Jun-21 06:01N 38°42' W 009°08'4 8.3
2017-Jun-21 05:30N 38°39' W 009°05'3 7.0
2017-Jun-21 05:00N 38°42' W 009°08'4 6.9
2017-Jun-21 04:29N 38°39' W 009°05'0 0.0
2017-Jun-20 22:49N 38°39' W 009°05'413.3
2017-Jun-20 22:31N 38°42' W 009°08'4 8.3
2017-Jun-20 22:01N 38°39' W 009°05'3 6.8
2017-Jun-20 21:31N 38°42' W 009°08'3 6.6
2017-Jun-20 20:59N 38°39' W 009°05'3 7.0
2017-Jun-20 20:31N 38°41' W 009°08'3 6.7
2017-Jun-20 20:01N 38°39' W 009°05'0 0.0
2017-Jun-20 19:31N 38°39' W 009°05'4 8.3
2017-Jun-20 19:01N 38°42' W 009°08'4 8.4
2017-Jun-20 18:30N 38°39' W 009°05'4 8.4
2017-Jun-20 18:01N 38°42' W 009°08'4 8.2
2017-Jun-20 17:30N 38°39' W 009°05'4 7.5
2017-Jun-20 17:01N 38°42' W 009°08'2 3.5
2017-Jun-20 16:30N 38°40' W 009°07'1 1.3
2017-Jun-20 16:00N 38°41' W 009°08'3 5.1
2017-Jun-20 15:29N 38°39' W 009°05'0 0.0
2017-Jun-20 12:26N 38°39' W 009°05'3 8.0
2017-Jun-20 12:00N 38°42' W 009°08'3 5.4
2017-Jun-20 11:30N 38°39' W 009°06'3 5.7
2017-Jun-20 11:00N 38°42' W 009°08'3 5.7
2017-Jun-20 10:30N 38°39' W 009°06'1 1.6
2017-Jun-20 10:00N 38°39' W 009°05'0 0.0
2017-Jun-20 09:30N 38°39' W 009°05'4 8.0
2017-Jun-20 09:00N 38°42' W 009°08'4 7.9
2017-Jun-20 08:30N 38°39' W 009°05'4 8.3
2017-Jun-20 08:00N 38°42' W 009°08'4 7.9
2017-Jun-20 07:30N 38°39' W 009°05'2 4.0
2017-Jun-20 07:00N 38°40' W 009°07'0 0.5
2017-Jun-20 06:30N 38°40' W 009°07'1 1.8
2017-Jun-20 06:00N 38°40' W 009°06'1 2.1
2017-Jun-20 05:30N 38°39' W 009°05'0 0.0
2017-Jun-19 20:21N 38°39' W 009°05'2 7.2
2017-Jun-19 20:00N 38°40' W 009°07'1 1.5
2017-Jun-19 19:30N 38°40' W 009°07'2 3.7
2017-Jun-19 19:00N 38°39' W 009°05'2 4.4
2017-Jun-19 18:30N 38°40' W 009°07'1 2.5
2017-Jun-19 18:00N 38°39' W 009°06'3 6.7
2017-Jun-19 17:30N 38°42' W 009°08'4 8.4
2017-Jun-19 17:00N 38°39' W 009°05'4 7.7
2017-Jun-19 16:31N 38°42' W 009°08'2 3.7
2017-Jun-19 16:01N 38°40' W 009°07'0 0.8
2017-Jun-19 15:31N 38°40' W 009°07'2 4.0
2017-Jun-19 15:00N 38°39' W 009°05'4 3.6
2017-Jun-19 14:00N 38°42' W 009°08'3 6.4
2017-Jun-19 13:29N 38°39' W 009°05'3 6.8
2017-Jun-19 13:01N 38°42' W 009°08'4 5.9
2017-Jun-19 12:25N 38°39' W 009°05'0 0.2
2017-Jun-19 12:01N 38°39' W 009°05'0 0.0
2017-Jun-19 11:30N 38°39' W 009°05'0 0.0
2017-Jun-19 11:01N 38°39' W 009°05'0 0.0
2017-Jun-19 10:30N 38°39' W 009°05'0 0.1
2017-Jun-19 10:00N 38°39' W 009°05'3 7.0
2017-Jun-19 09:31N 38°42' W 009°08'3 6.9
2017-Jun-19 09:01N 38°39' W 009°05'3 6.6
2017-Jun-19 08:31N 38°41' W 009°08'3 6.7
2017-Jun-19 08:01N 38°39' W 009°05'4 8.3
2017-Jun-19 07:30N 38°42' W 009°08'3 5.4
2017-Jun-19 07:00N 38°40' W 009°07'1 1.7
2017-Jun-19 06:30N 38°39' W 009°06'1 1.4
2017-Jun-19 06:01N 38°39' W 009°05'0 0.0
2017-Jun-19 05:31N 38°39' W 009°05'0 0.0
2017-Jun-18 10:24N 38°39' W 009°05'3 8.3
2017-Jun-18 10:00N 38°41' W 009°08'3 5.2
2017-Jun-18 09:30N 38°39' W 009°06'3 5.5
2017-Jun-18 09:00N 38°42' W 009°08'3 6.6
2017-Jun-18 08:30N 38°39' W 009°05'3 6.1
2017-Jun-18 08:00N 38°41' W 009°08'3 5.1
2017-Jun-18 07:30N 38°39' W 009°06'3 5.5
2017-Jun-18 07:00N 38°42' W 009°08'3 5.5
2017-Jun-18 06:30N 38°39' W 009°06'0 0.1
2017-Jun-18 06:00N 38°39' W 009°06'1 1.9
2017-Jun-18 05:30N 38°40' W 009°07'1 1.3
2017-Jun-18 05:00N 38°40' W 009°06'2 4.1
2017-Jun-18 04:30N 38°41' W 009°08'3 6.0
2017-Jun-18 04:00N 38°39' W 009°05'0 0.0
2017-Jun-18 01:24N 38°39' W 009°05'410.5
2017-Jun-18 01:00N 38°42' W 009°08'4 8.3
2017-Jun-18 00:30N 38°39' W 009°05'4 8.3
2017-Jun-18 00:00N 38°42' W 009°08'4 8.3
2017-Jun-17 23:30N 38°39' W 009°05'4 8.3
2017-Jun-17 23:00N 38°42' W 009°08'4 8.4
2017-Jun-17 22:30N 38°39' W 009°05'3 6.7
2017-Jun-17 22:00N 38°41' W 009°08'3 5.7
2017-Jun-17 21:30N 38°39' W 009°06'3 6.0
2017-Jun-17 21:00N 38°42' W 009°08'3 5.7
2017-Jun-17 20:30N 38°39' W 009°06'3 5.3
2017-Jun-17 20:00N 38°41' W 009°08'3 5.6
2017-Jun-17 19:30N 38°39' W 009°06'1 1.3
2017-Jun-17 19:00N 38°39' W 009°05'3 6.8
2017-Jun-17 18:30N 38°42' W 009°08'3 5.2
2017-Jun-17 18:00N 38°39' W 009°06'3 5.3
2017-Jun-17 17:30N 38°42' W 009°08'3 5.4
2017-Jun-17 17:00N 38°39' W 009°06'3 5.3
2017-Jun-17 16:30N 38°42' W 009°08'3 5.5
2017-Jun-17 16:00N 38°39' W 009°06'3 5.9
2017-Jun-17 15:30N 38°42' W 009°08'3 5.5
2017-Jun-17 15:00N 38°39' W 009°06'0 0.1
2017-Jun-17 14:00N 38°39' W 009°06'1 1.6
2017-Jun-17 13:30N 38°39' W 009°05'0 0.0
2017-Jun-17 13:00N 38°39' W 009°05'0 0.0
2017-Jun-17 12:30N 38°39' W 009°05'4 8.3
2017-Jun-17 12:00N 38°42' W 009°08'3 7.0
2017-Jun-17 11:30N 38°39' W 009°06'3 5.4
2017-Jun-17 11:00N 38°42' W 009°08'3 5.5
2017-Jun-17 10:30N 38°39' W 009°06'3 5.6
2017-Jun-17 10:00N 38°42' W 009°08'3 6.2
2017-Jun-17 09:30N 38°39' W 009°05'4 7.8
2017-Jun-17 09:00N 38°42' W 009°08'4 7.1
2017-Jun-17 08:30N 38°39' W 009°06'3 5.6
2017-Jun-17 08:00N 38°42' W 009°08'3 5.3
2017-Jun-17 07:30N 38°39' W 009°06'3 5.3
2017-Jun-17 07:00N 38°41' W 009°08'3 5.6
2017-Jun-17 06:30N 38°39' W 009°06'0 0.6
2017-Jun-17 06:00N 38°39' W 009°06'1 1.2
2017-Jun-17 05:30N 38°40' W 009°07'0 0.1
2017-Jun-17 05:00N 38°40' W 009°06'2 3.0
2017-Jun-17 04:30N 38°41' W 009°08'3 5.9
2017-Jun-17 04:00N 38°39' W 009°05'0 0.0
2017-Jun-16 10:21N 38°39' W 009°05'3 9.9
2017-Jun-16 10:01N 38°42' W 009°08'3 5.8
2017-Jun-16 09:30N 38°39' W 009°06'1 1.4
2017-Jun-16 09:00N 38°39' W 009°05'4 8.3
2017-Jun-16 08:30N 38°42' W 009°08'3 5.2
2017-Jun-16 08:00N 38°40' W 009°07'1 1.8
2017-Jun-16 07:30N 38°39' W 009°06'3 6.8
2017-Jun-16 07:00N 38°42' W 009°08'4 8.3
2017-Jun-16 06:30N 38°39' W 009°05'4 8.3
2017-Jun-16 06:01N 38°42' W 009°08'4 8.3
2017-Jun-16 05:31N 38°39' W 009°05'4 7.5
2017-Jun-16 05:01N 38°42' W 009°08'4 7.5
2017-Jun-16 04:30N 38°39' W 009°05'0 0.0
2017-Jun-15 20:50N 38°39' W 009°05'310.3
2017-Jun-15 20:30N 38°41' W 009°08'3 5.4
2017-Jun-15 20:00N 38°39' W 009°06'1 1.6
2017-Jun-15 19:30N 38°39' W 009°05'3 6.8
2017-Jun-15 19:00N 38°41' W 009°08'2 4.6
2017-Jun-15 18:30N 38°40' W 009°06'3 5.4
2017-Jun-15 18:00N 38°42' W 009°08'3 6.1
2017-Jun-15 17:30N 38°39' W 009°06'3 5.7
2017-Jun-15 17:00N 38°42' W 009°08'3 6.0
2017-Jun-15 16:30N 38°39' W 009°05'3 6.0
2017-Jun-15 16:00N 38°42' W 009°08'3 5.8
2017-Jun-15 15:30N 38°39' W 009°06'3 5.7
2017-Jun-15 15:00N 38°41' W 009°08'0 0.0
2017-Jun-15 14:00N 38°41' W 009°08'3 5.5
2017-Jun-15 13:30N 38°39' W 009°06'3 5.5
2017-Jun-15 13:00N 38°41' W 009°08'3 5.7
2017-Jun-15 12:30N 38°39' W 009°06'1 1.4
2017-Jun-15 12:00N 38°39' W 009°05'0 0.0
2017-Jun-15 11:30N 38°39' W 009°05'0 0.0
2017-Jun-15 11:00N 38°39' W 009°05'0 0.0
2017-Jun-15 10:30N 38°39' W 009°05'0 0.0
2017-Jun-15 10:00N 38°39' W 009°05'0 0.0
2017-Jun-15 09:30N 38°39' W 009°05'0 0.0
2017-Jun-15 08:59N 38°39' W 009°05'0 0.0
2017-Jun-15 06:39N 38°39' W 009°05'0 3.3
2017-Jun-15 06:30N 38°39' W 009°05'1 2.8
2017-Jun-15 06:00N 38°40' W 009°07'1 1.8
2017-Jun-15 05:30N 38°39' W 009°06'2 3.8
2017-Jun-15 05:00N 38°41' W 009°07'3 5.5
2017-Jun-15 04:30N 38°39' W 009°05'0 0.0
2017-Jun-14 22:57N 38°39' W 009°05'4 9.4
2017-Jun-14 22:30N 38°42' W 009°08'4 8.4
2017-Jun-14 22:00N 38°39' W 009°05'3 6.8
2017-Jun-14 21:30N 38°41' W 009°08'3 6.7
2017-Jun-14 21:00N 38°39' W 009°05'4 7.1
2017-Jun-14 20:30N 38°42' W 009°08'4 7.2
2017-Jun-14 20:00N 38°39' W 009°05'0 0.0
2017-Jun-14 19:30N 38°39' W 009°05'4 8.3
2017-Jun-14 19:00N 38°42' W 009°08'4 8.3
2017-Jun-14 18:30N 38°39' W 009°05'4 8.4
2017-Jun-14 18:00N 38°42' W 009°08'4 8.3
2017-Jun-14 17:30N 38°39' W 009°05'3 6.1
2017-Jun-14 17:00N 38°41' W 009°07'1 2.3
2017-Jun-14 16:30N 38°40' W 009°07'0 0.3
2017-Jun-14 16:00N 38°40' W 009°07'2 0.3
2017-Jun-14 09:22N 38°39' W 009°05'3 9.4
2017-Jun-14 09:00N 38°41' W 009°08'3 6.0
2017-Jun-14 08:30N 38°39' W 009°05'3 5.6
2017-Jun-14 08:00N 38°41' W 009°08'3 6.5
2017-Jun-14 07:30N 38°39' W 009°05'4 8.3
2017-Jun-14 07:00N 38°42' W 009°08'4 8.3
2017-Jun-14 06:30N 38°39' W 009°05'3 6.5
2017-Jun-14 06:00N 38°41' W 009°08'3 6.6
2017-Jun-14 05:30N 38°39' W 009°05'  

Dump ship's entire track history